Time;durP1;ratioP1;P1;durP2;ratioP2;P2;SDS_P1;SDS_P2;PMS_P1;PMS_P2;Temp;Humidity;BMP_temperature;BMP_pressure;BME280_temperature;BME280_humidity;BME280_pressure;Samples;Min_cycle;Max_cycle;Signal;HPM_P1;HPM_P2
2022/11/26 00:01:19;;;;;;;;;;;;;;;;;;5035261;28;1953;-66
2022/11/26 00:03:45;;;;;;;;;;;;;;;;;;5051764;28;1409;-66
2022/11/26 00:06:28;;;;;;;;;;;;;;;;;;5053632;28;904;-67
2022/11/26 00:08:53;;;;;;;;;;;;;;;;;;5053263;28;812;-66
2022/11/26 00:11:18;;;;;;;;;;;;;;;;;;5052954;28;938;-66
2022/11/26 00:13:44;;;;;;;;;;;;;;;;;;5050563;28;880;-66
2022/11/26 00:16:13;;;;;;;;;;;;;;;;;;5052911;28;857;-66
2022/11/26 00:18:39;;;;;;;;;;;;;;;;;;5052115;28;809;-67
2022/11/26 00:21:05;;;;;;;;;;;;;;;;;;5034368;28;1976;-67
2022/11/26 00:23:30;;;;;;;;;;;;;;;;;;5052446;28;785;-67
2022/11/26 00:25:57;;;;;;;;;;;;;;;;;;5050668;28;806;-67
2022/11/26 00:28:22;;;;;;;;;;;;;;;;;;5050951;28;1203;-67
2022/11/26 00:30:48;;;;;;;;;;;;;;;;;;5050086;28;1255;-67
2022/11/26 00:33:13;;;;;;;;;;;;;;;;;;5050986;28;1290;-67
2022/11/26 00:35:38;;;;;;;;;;;;;;;;;;5050790;28;1187;-67
2022/11/26 00:38:04;;;;;;;;;;;;;;;;;;5050696;28;1179;-67
2022/11/26 00:40:32;;;;;;;;;;;;;;;;;;5051697;28;963;-67
2022/11/26 00:42:58;;;;;;;;;;;;;;;;;;5051494;28;1949;-67
2022/11/26 00:45:28;;;;;;;;;;;;;;;;;;5052341;28;1001;-67
2022/11/26 00:47:54;;;;;;;;;;;;;;;;;;5051962;28;619;-67
2022/11/26 00:50:23;;;;;;;;;;;;;;;;;;5050357;28;1365;-67
2022/11/26 00:52:51;;;;;;;;;;;;;;;;;;5051265;28;864;-67
2022/11/26 00:55:28;;;;;;;;;;;;;;;;;;5052143;28;944;-67
2022/11/26 00:57:53;;;;;;;;;;;;;;;;;;5050684;28;1173;-65
2022/11/26 01:00:20;;;;;;;;;;;;;;;;;;5050573;28;1376;-65
2022/11/26 01:02:46;;;;;;;;;;;;;;;;;;5050610;28;1919;-65
2022/11/26 01:05:11;;;;;;;;;;;;;;;;;;5052942;28;778;-66
2022/11/26 01:07:36;;;;;;;;;;;;;;;;;;5051012;28;869;-65
2022/11/26 01:10:02;;;;;;;;;;;;;;;;;;5050935;28;920;-65
2022/11/26 01:12:27;;;;;;;;;;;;;;;;;;5051294;28;872;-65
2022/11/26 01:14:53;;;;;;;;;;;;;;;;;;5032781;28;1320;-65
2022/11/26 01:17:18;;;;;;;;;;;;;;;;;;5050987;28;888;-65
2022/11/26 01:19:44;;;;;;;;;;;;;;;;;;5049534;28;845;-65
2022/11/26 01:22:20;;;;;;;;;;;;;;;;;;5051648;28;1910;-65
2022/11/26 01:24:45;;;;;;;;;;;;;;;;;;5050786;28;841;-65
2022/11/26 01:27:11;;;;;;;;;;;;;;;;;;5049808;28;1231;-66
2022/11/26 01:29:36;;;;;;;;;;;;;;;;;;5049605;28;988;-65
2022/11/26 01:32:01;;;;;;;;;;;;;;;;;;5050742;28;920;-65
2022/11/26 01:34:27;;;;;;;;;;;;;;;;;;5052181;28;892;-66
2022/11/26 01:36:52;;;;;;;;;;;;;;;;;;5051119;28;884;-66
2022/11/26 01:39:19;;;;;;;;;;;;;;;;;;5051911;28;1213;-66
2022/11/26 01:41:56;;;;;;;;;;;;;;;;;;5050381;28;1897;-67
2022/11/26 01:44:22;;;;;;;;;;;;;;;;;;5052281;28;864;-66
2022/11/26 01:46:48;;;;;;;;;;;;;;;;;;5052063;28;1043;-66
2022/11/26 01:49:34;;;;;;;;;;;;;;;;;;5051834;28;920;-66
2022/11/26 01:52:05;;;;;;;;;;;;;;;;;;5048938;28;1052;-66
2022/11/26 01:54:31;;;;;;;;;;;;;;;;;;5049514;28;1185;-66
2022/11/26 01:57:02;;;;;;;;;;;;;;;;;;5048604;28;903;-66
2022/11/26 01:59:30;;;;;;;;;;;;;;;;;;5048873;28;1303;-65
2022/11/26 02:01:57;;;;;;;;;;;;;;;;;;5049691;28;1917;-65
2022/11/26 02:04:25;;;;;;;;;;;;;;;;;;5048969;28;1192;-64
2022/11/26 02:06:53;;;;;;;;;;;;;;;;;;5049600;28;840;-67
2022/11/26 02:09:18;;;;;;;;;;;;;;;;;;5050281;28;916;-65
2022/11/26 02:11:44;;;;;;;;;;;;;;;;;;5049499;28;967;-65
2022/11/26 02:14:18;;;;;;;;;;;;;;;;;;5050478;28;841;-67
2022/11/26 02:16:56;;;;;;;;;;;;;;;;;;5049711;28;587;-65
2022/11/26 02:19:33;;;;;;;;;;;;;;;;;;5050723;28;880;-65
2022/11/26 02:22:03;;;;;;;;;;;;;;;;;;5049472;28;1906;-65
2022/11/26 02:24:41;;;;;;;;;;;;;;;;;;5050041;28;912;-65
2022/11/26 02:27:06;;;;;;;;;;;;;;;;;;5049712;28;893;-65
2022/11/26 02:29:59;;;;;;;;;;;;;;;;;;5050502;28;790;-67
2022/11/26 02:32:43;;;;;;;;;;;;;;;;;;5050257;28;841;-65
2022/11/26 02:35:12;;;;;;;;;;;;;;;;;;5050412;28;963;-65
2022/11/26 02:37:41;;;;;;;;;;;;;;;;;;5049125;28;1307;-67
2022/11/26 02:40:07;;;;;;;;;;;;;;;;;;5049787;28;905;-67
2022/11/26 02:42:33;;;;;;;;;;;;;;;;;;5038407;28;1957;-65
2022/11/26 02:45:01;;;;;;;;;;;;;;;;;;5051899;28;1294;-67
2022/11/26 02:47:27;;;;;;;;;;;;;;;;;;5067719;28;1061;-67
2022/11/26 02:49:54;;;;;;;;;;;;;;;;;;5089296;28;931;-67
2022/11/26 02:52:20;;;;;;;;;;;;;;;;;;5090115;28;884;-67
2022/11/26 02:54:47;;;;;;;;;;;;;;;;;;5089436;28;864;-67
2022/11/26 02:57:14;;;;;;;;;;;;;;;;;;5090033;28;1210;-66
2022/11/26 02:59:40;;;;;;;;;;;;;;;;;;5090201;28;1222;-66
2022/11/26 03:02:16;;;;;;;;;;;;;;;;;;5089024;28;1977;-66
2022/11/26 03:04:43;;;;;;;;;;;;;;;;;;5092671;28;876;-66
2022/11/26 03:07:09;;;;;;;;;;;;;;;;;;5075766;28;1228;-66
2022/11/26 03:09:43;;;;;;;;;;;;;;;;;;5093888;28;916;-66
2022/11/26 03:12:09;;;;;;;;;;;;;;;;;;5076874;28;1192;-66
2022/11/26 03:14:34;;;;;;;;;;;;;;;;;;5076791;28;723;-66
2022/11/26 03:17:00;;;;;;;;;;;;;;;;;;5076183;28;900;-66
2022/11/26 03:19:25;;;;;;;;;;;;;;;;;;5076613;28;877;-66
2022/11/26 03:21:50;;;;;;;;;;;;;;;;;;5093906;28;1955;-66
2022/11/26 03:24:15;;;;;;;;;;;;;;;;;;5075489;28;967;-66
2022/11/26 03:26:41;;;;;;;;;;;;;;;;;;5075525;28;1163;-66
2022/11/26 03:29:06;;;;;;;;;;;;;;;;;;5092872;28;1058;-66
2022/11/26 03:31:31;;;;;;;;;;;;;;;;;;5093507;28;920;-66
2022/11/26 03:33:56;;;;;;;;;;;;;;;;;;5092690;28;903;-66
2022/11/26 03:36:22;;;;;;;;;;;;;;;;;;5093498;28;849;-66
2022/11/26 03:38:47;;;;;;;;;;;;;;;;;;5092597;28;880;-66
2022/11/26 03:41:12;;;;;;;;;;;;;;;;;;5093632;28;1890;-66
2022/11/26 03:43:38;;;;;;;;;;;;;;;;;;5058526;28;1317;-66
2022/11/26 03:46:03;;;;;;;;;;;;;;;;;;5092372;28;1058;-66
2022/11/26 03:48:28;;;;;;;;;;;;;;;;;;5093058;28;927;-66
2022/11/26 03:50:53;;;;;;;;;;;;;;;;;;5074351;28;837;-67
2022/11/26 03:53:19;;;;;;;;;;;;;;;;;;5093229;28;876;-66
2022/11/26 03:55:44;;;;;;;;;;;;;;;;;;5092898;28;816;-66
2022/11/26 03:58:09;;;;;;;;;;;;;;;;;;5092607;28;1168;-66
2022/11/26 04:00:35;;;;;;;;;;;;;;;;;;5093043;28;821;-66
2022/11/26 04:03:00;;;;;;;;;;;;;;;;;;5092173;28;1910;-66
2022/11/26 04:05:25;;;;;;;;;;;;;;;;;;5092932;28;915;-66
2022/11/26 04:07:51;;;;;;;;;;;;;;;;;;5074117;28;1298;-66
2022/11/26 04:10:16;;;;;;;;;;;;;;;;;;5074592;28;1230;-66
2022/11/26 04:12:41;;;;;;;;;;;;;;;;;;5093011;28;892;-66
2022/11/26 04:15:07;;;;;;;;;;;;;;;;;;5073496;28;1176;-66
2022/11/26 04:17:32;;;;;;;;;;;;;;;;;;5093151;28;891;-66
2022/11/26 04:19:57;;;;;;;;;;;;;;;;;;5074142;28;853;-66
2022/11/26 04:22:22;;;;;;;;;;;;;;;;;;5092959;28;1922;-66
2022/11/26 04:24:48;;;;;;;;;;;;;;;;;;5092235;28;864;-66
2022/11/26 04:27:13;;;;;;;;;;;;;;;;;;5074233;28;900;-66
2022/11/26 04:29:38;;;;;;;;;;;;;;;;;;5092894;28;911;-66
2022/11/26 04:32:04;;;;;;;;;;;;;;;;;;5092115;28;903;-66
2022/11/26 04:34:29;;;;;;;;;;;;;;;;;;5092668;28;880;-66
2022/11/26 04:36:54;;;;;;;;;;;;;;;;;;5091510;28;997;-66
2022/11/26 04:39:19;;;;;;;;;;;;;;;;;;5092102;28;801;-66
2022/11/26 04:41:45;;;;;;;;;;;;;;;;;;5092470;28;1976;-66
2022/11/26 04:44:10;;;;;;;;;;;;;;;;;;5092041;28;828;-66
2022/11/26 04:46:35;;;;;;;;;;;;;;;;;;5092587;28;911;-66
2022/11/26 04:49:01;;;;;;;;;;;;;;;;;;5073814;28;1259;-66
2022/11/26 04:51:26;;;;;;;;;;;;;;;;;;5092871;28;824;-66
2022/11/26 04:53:51;;;;;;;;;;;;;;;;;;5092413;28;958;-66
2022/11/26 04:56:16;;;;;;;;;;;;;;;;;;5092728;28;904;-66
2022/11/26 04:58:42;;;;;;;;;;;;;;;;;;5083656;28;1368;-66
2022/11/26 05:01:07;;;;;;;;;;;;;;;;;;4983052;28;2779;-66
2022/11/26 05:03:32;;;;;;;;;;;;;;;;;;5043051;28;2544;-66
2022/11/26 05:05:58;;;;;;;;;;;;;;;;;;5052904;28;1216;-66
2022/11/26 05:08:23;;;;;;;;;;;;;;;;;;5071212;28;924;-66
2022/11/26 05:10:52;;;;;;;;;;;;;;;;;;5069600;28;916;-66
2022/11/26 05:13:17;;;;;;;;;;;;;;;;;;5070981;28;802;-66
2022/11/26 05:15:43;;;;;;;;;;;;;;;;;;5071311;28;908;-66
2022/11/26 05:18:08;;;;;;;;;;;;;;;;;;5052907;28;865;-66
2022/11/26 05:20:33;;;;;;;;;;;;;;;;;;5055379;28;1231;-66
2022/11/26 05:22:58;;;;;;;;;;;;;;;;;;5071298;28;1918;-66
2022/11/26 05:25:24;;;;;;;;;;;;;;;;;;5070976;28;896;-66
2022/11/26 05:27:49;;;;;;;;;;;;;;;;;;5051478;28;1347;-66
2022/11/26 05:30:14;;;;;;;;;;;;;;;;;;5070824;28;842;-66
2022/11/26 05:32:39;;;;;;;;;;;;;;;;;;5071178;28;888;-66
2022/11/26 05:35:05;;;;;;;;;;;;;;;;;;5069945;28;840;-66
2022/11/26 05:37:30;;;;;;;;;;;;;;;;;;5069544;28;1196;-66
2022/11/26 05:39:55;;;;;;;;;;;;;;;;;;5068187;28;1148;-66
2022/11/26 05:42:21;;;;;;;;;;;;;;;;;;5036046;28;1978;-66
2022/11/26 05:44:46;;;;;;;;;;;;;;;;;;5031177;28;869;-66
2022/11/26 05:47:11;;;;;;;;;;;;;;;;;;5030715;28;1143;-66
2022/11/26 05:49:36;;;;;;;;;;;;;;;;;;5029700;28;1188;-66
2022/11/26 05:52:01;;;;;;;;;;;;;;;;;;5030054;28;758;-66
2022/11/26 05:54:27;;;;;;;;;;;;;;;;;;5029699;28;1184;-67
2022/11/26 05:56:52;;;;;;;;;;;;;;;;;;5031875;28;1264;-66
2022/11/26 05:59:17;;;;;;;;;;;;;;;;;;5027623;28;1239;-66
2022/11/26 06:01:42;;;;;;;;;;;;;;;;;;5030003;28;1894;-66
2022/11/26 06:04:08;;;;;;;;;;;;;;;;;;5028973;28;1319;-66
2022/11/26 06:06:33;;;;;;;;;;;;;;;;;;5031061;28;821;-66
2022/11/26 06:08:58;;;;;;;;;;;;;;;;;;5025923;28;1141;-66
2022/11/26 06:11:24;;;;;;;;;;;;;;;;;;5012938;28;888;-66
2022/11/26 06:13:49;;;;;;;;;;;;;;;;;;5030370;28;829;-66
2022/11/26 06:16:14;;;;;;;;;;;;;;;;;;5030143;28;797;-66
2022/11/26 06:18:39;;;;;;;;;;;;;;;;;;4996526;28;1338;-66
2022/11/26 06:21:05;;;;;;;;;;;;;;;;;;5029832;28;1914;-66
2022/11/26 06:23:32;;;;;;;;;;;;;;;;;;5030481;28;885;-66
2022/11/26 06:25:57;;;;;;;;;;;;;;;;;;5030030;28;1174;-66
2022/11/26 06:28:22;;;;;;;;;;;;;;;;;;5031618;28;854;-66
2022/11/26 06:30:48;;;;;;;;;;;;;;;;;;5030944;28;944;-66
2022/11/26 06:33:13;;;;;;;;;;;;;;;;;;5031318;28;1023;-66
2022/11/26 06:35:38;;;;;;;;;;;;;;;;;;5031713;28;857;-66
2022/11/26 06:38:04;;;;;;;;;;;;;;;;;;5031197;28;970;-65
2022/11/26 06:40:29;;;;;;;;;;;;;;;;;;5035437;28;885;-65
2022/11/26 06:42:54;;;;;;;;;;;;;;;;;;5034635;28;1960;-66
2022/11/26 06:45:21;;;;;;;;;;;;;;;;;;5035059;28;1043;-67
2022/11/26 06:47:46;;;;;;;;;;;;;;;;;;5035085;28;869;-66
2022/11/26 06:50:12;;;;;;;;;;;;;;;;;;5034181;28;833;-67
2022/11/26 06:52:38;;;;;;;;;;;;;;;;;;5000207;28;1269;-67
2022/11/26 06:55:03;;;;;;;;;;;;;;;;;;5015608;28;897;-65
2022/11/26 06:57:28;;;;;;;;;;;;;;;;;;5016076;28;1342;-65
2022/11/26 06:59:54;;;;;;;;;;;;;;;;;;5033412;28;948;-66
2022/11/26 07:02:19;;;;;;;;;;;;;;;;;;5034201;28;1959;-65
2022/11/26 07:04:44;;;;;;;;;;;;;;;;;;5033767;28;1157;-65
2022/11/26 07:07:09;;;;;;;;;;;;;;;;;;5015394;28;901;-65
2022/11/26 07:09:34;;;;;;;;;;;;;;;;;;5033893;28;999;-65
2022/11/26 07:12:00;;;;;;;;;;;;;;;;;;5015514;28;880;-65
2022/11/26 07:14:25;;;;;;;;;;;;;;;;;;5033475;28;787;-65
2022/11/26 07:16:51;;;;;;;;;;;;;;;;;;5016362;28;1243;-65
2022/11/26 07:19:16;;;;;;;;;;;;;;;;;;4999279;28;1102;-65
2022/11/26 07:21:41;;;;;;;;;;;;;;;;;;5034123;28;1965;-65
2022/11/26 07:24:07;;;;;;;;;;;;;;;;;;5015634;28;1280;-65
2022/11/26 07:26:32;;;;;;;;;;;;;;;;;;5033428;28;940;-65
2022/11/26 07:28:57;;;;;;;;;;;;;;;;;;5033197;28;924;-65
2022/11/26 07:31:23;;;;;;;;;;;;;;;;;;5033397;28;830;-65
2022/11/26 07:33:48;;;;;;;;;;;;;;;;;;5033449;28;885;-65
2022/11/26 07:36:15;;;;;;;;;;;;;;;;;;5032684;28;899;-65
2022/11/26 07:38:41;;;;;;;;;;;;;;;;;;5033587;28;782;-65
2022/11/26 07:41:08;;;;;;;;;;;;;;;;;;5032326;28;1905;-65
2022/11/26 07:43:33;;;;;;;;;;;;;;;;;;5033031;28;991;-65
2022/11/26 07:46:03;;;;;;;;;;;;;;;;;;5015112;28;899;-65
2022/11/26 07:48:28;;;;;;;;;;;;;;;;;;5033264;28;900;-65
2022/11/26 07:50:54;;;;;;;;;;;;;;;;;;5013893;28;1192;-65
2022/11/26 07:53:19;;;;;;;;;;;;;;;;;;5015308;28;912;-65
2022/11/26 07:55:44;;;;;;;;;;;;;;;;;;5033053;28;841;-65
2022/11/26 07:58:09;;;;;;;;;;;;;;;;;;5014937;28;1166;-68
2022/11/26 08:00:35;;;;;;;;;;;;;;;;;;5014412;28;1192;-65
2022/11/26 08:03:00;;;;;;;;;;;;;;;;;;5030998;28;1902;-65
2022/11/26 08:05:25;;;;;;;;;;;;;;;;;;5030760;28;1049;-65
2022/11/26 08:07:50;;;;;;;;;;;;;;;;;;5031389;28;833;-65
2022/11/26 08:10:16;;;;;;;;;;;;;;;;;;5030478;28;905;-66
2022/11/26 08:12:41;;;;;;;;;;;;;;;;;;5032446;28;912;-66
2022/11/26 08:15:07;;;;;;;;;;;;;;;;;;5030822;28;825;-66
2022/11/26 08:17:32;;;;;;;;;;;;;;;;;;5031580;28;984;-66
2022/11/26 08:19:57;;;;;;;;;;;;;;;;;;5032717;28;980;-66
2022/11/26 08:22:23;;;;;;;;;;;;;;;;;;5033206;28;1969;-66
2022/11/26 08:24:48;;;;;;;;;;;;;;;;;;5031740;28;1872;-66
2022/11/26 08:27:13;;;;;;;;;;;;;;;;;;5031171;28;1268;-66
2022/11/26 08:29:39;;;;;;;;;;;;;;;;;;5031870;28;1156;-66
2022/11/26 08:32:04;;;;;;;;;;;;;;;;;;5032209;28;900;-66
2022/11/26 08:34:29;;;;;;;;;;;;;;;;;;5031590;28;814;-66
2022/11/26 08:36:55;;;;;;;;;;;;;;;;;;5029552;28;1438;-66
2022/11/26 08:39:20;;;;;;;;;;;;;;;;;;5031621;28;881;-66
2022/11/26 08:41:45;;;;;;;;;;;;;;;;;;5047210;28;1874;-66
2022/11/26 08:44:11;;;;;;;;;;;;;;;;;;5031329;28;905;-66
2022/11/26 08:46:37;;;;;;;;;;;;;;;;;;5030335;28;1179;-66
2022/11/26 08:49:03;;;;;;;;;;;;;;;;;;5030978;28;834;-66
2022/11/26 08:51:28;;;;;;;;;;;;;;;;;;5029926;28;1338;-66
2022/11/26 08:53:54;;;;;;;;;;;;;;;;;;5031639;28;817;-65
2022/11/26 08:56:19;;;;;;;;;;;;;;;;;;5030984;28;898;-65
2022/11/26 08:58:45;;;;;;;;;;;;;;;;;;5030055;28;1280;-66
2022/11/26 09:01:15;;;;;;;;;;;;;;;;;;5030741;28;1957;-66
2022/11/26 09:03:41;;;;;;;;;;;;;;;;;;5031236;28;1340;-66
2022/11/26 09:06:07;;;;;;;;;;;;;;;;;;5029393;28;976;-66
2022/11/26 09:08:43;;;;;;;;;;;;;;;;;;5030938;28;853;-66
2022/11/26 09:11:09;;;;;;;;;;;;;;;;;;5031143;28;945;-66
2022/11/26 09:13:34;;;;;;;;;;;;;;;;;;5029958;28;817;-66
2022/11/26 09:15:59;;;;;;;;;;;;;;;;;;5030912;28;928;-66
2022/11/26 09:18:25;;;;;;;;;;;;;;;;;;5030069;28;861;-66
2022/11/26 09:20:50;;;;;;;;;;;;;;;;;;5031664;28;885;-66
2022/11/26 09:23:15;;;;;;;;;;;;;;;;;;5029673;28;1981;-66
2022/11/26 09:25:40;;;;;;;;;;;;;;;;;;5031500;28;1055;-66
2022/11/26 09:28:06;;;;;;;;;;;;;;;;;;5030098;28;876;-66
2022/11/26 09:30:32;;;;;;;;;;;;;;;;;;5031101;28;844;-66
2022/11/26 09:32:57;;;;;;;;;;;;;;;;;;5030963;28;916;-66
2022/11/26 09:35:24;;;;;;;;;;;;;;;;;;5030354;28;991;-66
2022/11/26 09:37:49;;;;;;;;;;;;;;;;;;5030819;28;888;-66
2022/11/26 09:40:18;;;;;;;;;;;;;;;;;;5029118;28;829;-65
2022/11/26 09:43:02;;;;;;;;;;;;;;;;;;5045520;28;1897;-66
2022/11/26 09:45:48;;;;;;;;;;;;;;;;;;5030598;28;995;-66
2022/11/26 09:48:16;;;;;;;;;;;;;;;;;;5045127;28;1334;-66
2022/11/26 09:50:42;;;;;;;;;;;;;;;;;;5030419;28;907;-66
2022/11/26 09:53:20;;;;;;;;;;;;;;;;;;5028614;28;920;-67
2022/11/26 09:55:49;;;;;;;;;;;;;;;;;;5045743;28;1318;-66
2022/11/26 09:58:23;;;;;;;;;;;;;;;;;;5030600;28;884;-66
2022/11/26 10:00:50;;;;;;;;;;;;;;;;;;5031095;28;892;-66
2022/11/26 10:03:34;;;;;;;;;;;;;;;;;;5030339;28;1973;-67
2022/11/26 10:06:21;;;;;;;;;;;;;;;;;;5030555;28;1089;-67
2022/11/26 10:09:02;;;;;;;;;;;;;;;;;;5030570;28;1003;-66
2022/11/26 10:11:36;;;;;;;;;;;;;;;;;;5037982;28;1243;-66
2022/11/26 10:14:06;;;;;;;;;;;;;;;;;;5029204;28;955;-66
2022/11/26 10:16:32;;;;;;;;;;;;;;;;;;5030183;28;830;-66
2022/11/26 10:19:01;;;;;;;;;;;;;;;;;;5030097;28;955;-66
2022/11/26 10:21:38;;;;;;;;;;;;;;;;;;5028391;28;1894;-67
2022/11/26 10:24:17;;;;;;;;;;;;;;;;;;5029334;28;778;-66
2022/11/26 10:26:43;;;;;;;;;;;;;;;;;;5028102;28;1289;-66
2022/11/26 10:29:17;;;;;;;;;;;;;;;;;;5028152;28;1324;-66
2022/11/26 10:31:44;;;;;;;;;;;;;;;;;;5029466;28;889;-66
2022/11/26 10:34:13;;;;;;;;;;;;;;;;;;5028347;28;2133;-66
2022/11/26 10:36:40;;;;;;;;;;;;;;;;;;5029537;28;830;-67
2022/11/26 10:39:06;;;;;;;;;;;;;;;;;;5029162;28;834;-66
2022/11/26 10:41:35;;;;;;;;;;;;;;;;;;5029263;28;1902;-67
2022/11/26 10:44:19;;;;;;;;;;;;;;;;;;5028906;28;825;-67
2022/11/26 10:46:44;;;;;;;;;;;;;;;;;;5029839;28;1064;-67
2022/11/26 10:49:14;;;;;;;;;;;;;;;;;;5027744;28;1242;-67
2022/11/26 10:51:39;;;;;;;;;;;;;;;;;;5029705;28;1071;-65
2022/11/26 10:54:06;;;;;;;;;;;;;;;;;;5027894;28;952;-65
2022/11/26 10:56:38;;;;;;;;;;;;;;;;;;5028417;28;884;-65
2022/11/26 10:59:05;;;;;;;;;;;;;;;;;;5029389;28;838;-65
2022/11/26 11:01:37;;;;;;;;;;;;;;;;;;5028512;28;1886;-65
2022/11/26 11:04:17;;;;;;;;;;;;;;;;;;5029034;28;1228;-65
2022/11/26 11:06:43;;;;;;;;;;;;;;;;;;5029634;28;822;-65
2022/11/26 11:09:21;;;;;;;;;;;;;;;;;;5029168;28;861;-66
2022/11/26 11:11:51;;;;;;;;;;;;;;;;;;5029908;28;916;-66
2022/11/26 11:14:27;;;;;;;;;;;;;;;;;;5027705;28;1311;-66
2022/11/26 11:16:52;;;;;;;;;;;;;;;;;;5029042;28;889;-66
2022/11/26 11:19:22;;;;;;;;;;;;;;;;;;5028936;28;821;-66
2022/11/26 11:21:48;;;;;;;;;;;;;;;;;;5028881;28;1883;-66
2022/11/26 11:24:21;;;;;;;;;;;;;;;;;;5027593;28;1323;-66
2022/11/26 11:26:47;;;;;;;;;;;;;;;;;;5031490;28;1209;-66
2022/11/26 11:29:28;;;;;;;;;;;;;;;;;;5032428;28;778;-65
2022/11/26 11:31:54;;;;;;;;;;;;;;;;;;5032651;28;840;-66
2022/11/26 11:34:22;;;;;;;;;;;;;;;;;;5031866;28;1157;-65
2022/11/26 11:37:05;;;;;;;;;;;;;;;;;;5031406;28;1118;-66
2022/11/26 11:39:34;;;;;;;;;;;;;;;;;;5031677;28;1208;-65
2022/11/26 11:42:00;;;;;;;;;;;;;;;;;;5032310;28;1961;-65
2022/11/26 11:44:30;;;;;;;;;;;;;;;;;;5032494;28;869;-65
2022/11/26 11:46:55;;;;;;;;;;;;;;;;;;5048512;28;1294;-65
2022/11/26 11:49:36;;;;;;;;;;;;;;;;;;5032960;28;947;-65
2022/11/26 11:52:05;;;;;;;;;;;;;;;;;;5031487;28;1267;-65
2022/11/26 11:54:43;;;;;;;;;;;;;;;;;;5031237;28;895;-66
2022/11/26 11:57:11;;;;;;;;;;;;;;;;;;5030510;28;1188;-66
2022/11/26 12:00:09;;;;;;;;;;;;;;;;;;5032199;28;849;-65
2022/11/26 12:02:35;;;;;;;;;;;;;;;;;;5032143;28;1928;-65
2022/11/26 12:05:19;;;;;;;;;;;;;;;;;;5031703;28;1383;-65
2022/11/26 12:07:53;;;;;;;;;;;;;;;;;;5031951;28;849;-65
2022/11/26 12:10:23;;;;;;;;;;;;;;;;;;5032344;28;849;-65
2022/11/26 12:12:51;;;;;;;;;;;;;;;;;;5032390;28;1271;-65
2022/11/26 12:15:27;;;;;;;;;;;;;;;;;;5030478;28;1090;-65
2022/11/26 12:17:52;;;;;;;;;;;;;;;;;;5030338;28;1198;-65
2022/11/26 12:20:25;;;;;;;;;;;;;;;;;;5030061;28;1263;-65
2022/11/26 12:22:56;;;;;;;;;;;;;;;;;;5031658;28;1963;-65
2022/11/26 12:25:22;;;;;;;;;;;;;;;;;;5031533;28;920;-65
2022/11/26 12:27:54;;;;;;;;;;;;;;;;;;5032008;28;892;-65
2022/11/26 12:30:20;;;;;;;;;;;;;;;;;;5031801;28;896;-65
2022/11/26 12:32:46;;;;;;;;;;;;;;;;;;5048182;28;1318;-66
2022/11/26 12:35:14;;;;;;;;;;;;;;;;;;5031835;28;869;-66
2022/11/26 12:37:40;;;;;;;;;;;;;;;;;;5030092;28;1287;-66
2022/11/26 12:40:21;;;;;;;;;;;;;;;;;;5030846;28;849;-66
2022/11/26 12:42:46;;;;;;;;;;;;;;;;;;5031314;28;1898;-65
2022/11/26 12:45:30;;;;;;;;;;;;;;;;;;5031258;28;813;-66
2022/11/26 12:48:05;;;;;;;;;;;;;;;;;;5031538;28;1117;-66
2022/11/26 12:50:37;;;;;;;;;;;;;;;;;;5047090;28;1357;-66
2022/11/26 12:53:16;;;;;;;;;;;;;;;;;;5031663;28;821;-66
2022/11/26 12:55:47;;;;;;;;;;;;;;;;;;5032667;28;1247;-66
2022/11/26 12:58:24;;;;;;;;;;;;;;;;;;5031063;28;881;-66
2022/11/26 13:00:53;;;;;;;;;;;;;;;;;;5030969;28;814;-65
2022/11/26 13:03:21;;;;;;;;;;;;;;;;;;5030612;28;1890;-66
2022/11/26 13:06:05;;;;;;;;;;;;;;;;;;5031360;28;999;-66
2022/11/26 13:08:33;;;;;;;;;;;;;;;;;;5031418;28;920;-66
2022/11/26 13:10:58;;;;;;;;;;;;;;;;;;5013244;28;1334;-66
2022/11/26 13:13:39;;;;;;;;;;;;;;;;;;5030370;28;1046;-66
2022/11/26 13:16:04;;;;;;;;;;;;;;;;;;5030336;28;860;-66
2022/11/26 13:18:32;;;;;;;;;;;;;;;;;;5030688;28;979;-66
2022/11/26 13:21:00;;;;;;;;;;;;;;;;;;5031259;28;904;-66
2022/11/26 13:23:32;;;;;;;;;;;;;;;;;;5014305;28;1969;-66
2022/11/26 13:26:00;;;;;;;;;;;;;;;;;;5031448;28;865;-66
2022/11/26 13:28:31;;;;;;;;;;;;;;;;;;5014106;28;1446;-66
2022/11/26 13:31:15;;;;;;;;;;;;;;;;;;5014646;28;1216;-66
2022/11/26 13:33:59;;;;;;;;;;;;;;;;;;5028596;28;1315;-66
2022/11/26 13:36:24;;;;;;;;;;;;;;;;;;5030692;28;794;-66
2022/11/26 13:39:05;;;;;;;;;;;;;;;;;;5030733;28;984;-66
2022/11/26 13:41:51;;;;;;;;;;;;;;;;;;5045521;28;1898;-66
2022/11/26 13:44:29;;;;;;;;;;;;;;;;;;5030281;28;1240;-66
2022/11/26 13:46:56;;;;;;;;;;;;;;;;;;5029019;28;1184;-66
2022/11/26 13:49:24;;;;;;;;;;;;;;;;;;5029102;28;932;-66
2022/11/26 13:51:53;;;;;;;;;;;;;;;;;;5030537;28;893;-66
2022/11/26 13:54:27;;;;;;;;;;;;;;;;;;5030093;28;888;-66
2022/11/26 13:56:58;;;;;;;;;;;;;;;;;;5045370;28;1216;-66
2022/11/26 13:59:24;;;;;;;;;;;;;;;;;;5030087;28;841;-66
2022/11/26 14:01:49;;;;;;;;;;;;;;;;;;5028761;28;1900;-66
2022/11/26 14:04:34;;;;;;;;;;;;;;;;;;5029573;28;1095;-66
2022/11/26 14:07:02;;;;;;;;;;;;;;;;;;5030045;28;973;-66
2022/11/26 14:09:46;;;;;;;;;;;;;;;;;;5029240;28;1208;-66
2022/11/26 14:12:15;;;;;;;;;;;;;;;;;;5027139;28;1196;-67
2022/11/26 14:14:41;;;;;;;;;;;;;;;;;;5029921;28;880;-67
2022/11/26 14:17:06;;;;;;;;;;;;;;;;;;5029631;28;817;-68
2022/11/26 14:19:38;;;;;;;;;;;;;;;;;;5030342;28;964;-68
2022/11/26 14:22:04;;;;;;;;;;;;;;;;;;5029924;28;1969;-68
2022/11/26 14:24:50;;;;;;;;;;;;;;;;;;5028327;28;1351;-68
2022/11/26 14:27:20;;;;;;;;;;;;;;;;;;5028008;28;1147;-67
2022/11/26 14:29:48;;;;;;;;;;;;;;;;;;5030048;28;1195;-68
2022/11/26 14:32:15;;;;;;;;;;;;;;;;;;5027797;28;1220;-67
2022/11/26 14:34:54;;;;;;;;;;;;;;;;;;5030033;28;914;-68
2022/11/26 14:37:21;;;;;;;;;;;;;;;;;;5044730;28;1125;-68
2022/11/26 14:39:56;;;;;;;;;;;;;;;;;;5044992;28;1318;-68
2022/11/26 14:42:21;;;;;;;;;;;;;;;;;;5027871;28;1919;-67
2022/11/26 14:44:58;;;;;;;;;;;;;;;;;;5029851;28;916;-68
2022/11/26 14:47:24;;;;;;;;;;;;;;;;;;5029403;28;1064;-67
2022/11/26 14:49:56;;;;;;;;;;;;;;;;;;5028535;28;960;-67
2022/11/26 14:52:23;;;;;;;;;;;;;;;;;;5028054;28;1236;-68
2022/11/26 14:54:53;;;;;;;;;;;;;;;;;;5045103;28;1247;-67
2022/11/26 14:57:22;;;;;;;;;;;;;;;;;;5027808;28;1147;-67
2022/11/26 15:00:19;;;;;;;;;;;;;;;;;;5030548;28;869;-68
2022/11/26 15:02:44;;;;;;;;;;;;;;;;;;5005067;28;1911;-67
2022/11/26 15:05:16;;;;;;;;;;;;;;;;;;5032901;28;1300;-67
2022/11/26 15:07:42;;;;;;;;;;;;;;;;;;5033885;28;856;-67
2022/11/26 15:10:13;;;;;;;;;;;;;;;;;;5031881;28;1354;-67
2022/11/26 15:12:39;;;;;;;;;;;;;;;;;;5034375;28;1171;-67
2022/11/26 15:15:06;;;;;;;;;;;;;;;;;;5033064;28;936;-67
2022/11/26 15:17:32;;;;;;;;;;;;;;;;;;5034312;28;817;-67
2022/11/26 15:19:59;;;;;;;;;;;;;;;;;;5034615;28;860;-68
2022/11/26 15:22:30;;;;;;;;;;;;;;;;;;5034182;28;1966;-67
2022/11/26 15:24:56;;;;;;;;;;;;;;;;;;5032502;28;1446;-67
2022/11/26 15:27:47;;;;;;;;;;;;;;;;;;5031449;28;1145;-66
2022/11/26 15:30:20;;;;;;;;;;;;;;;;;;5029390;28;1097;-66
2022/11/26 15:32:46;;;;;;;;;;;;;;;;;;5033755;28;857;-66
2022/11/26 15:35:13;;;;;;;;;;;;;;;;;;5032924;28;817;-66
2022/11/26 15:37:38;;;;;;;;;;;;;;;;;;5033402;28;872;-66
2022/11/26 15:40:08;;;;;;;;;;;;;;;;;;5031608;28;1242;-66
2022/11/26 15:42:34;;;;;;;;;;;;;;;;;;5032902;28;1952;-66
2022/11/26 15:44:59;;;;;;;;;;;;;;;;;;5033073;28;810;-66
2022/11/26 15:47:26;;;;;;;;;;;;;;;;;;5032463;28;985;-66
2022/11/26 15:49:54;;;;;;;;;;;;;;;;;;5032762;28;936;-66
2022/11/26 15:52:20;;;;;;;;;;;;;;;;;;5032484;28;810;-66
2022/11/26 15:55:00;;;;;;;;;;;;;;;;;;5032515;28;888;-66
2022/11/26 15:57:31;;;;;;;;;;;;;;;;;;5032775;28;809;-66
2022/11/26 16:00:16;;;;;;;;;;;;;;;;;;5032678;28;821;-66
2022/11/26 16:02:43;;;;;;;;;;;;;;;;;;5047972;28;1898;-65
2022/11/26 16:05:27;;;;;;;;;;;;;;;;;;5032148;28;1320;-65
2022/11/26 16:07:57;;;;;;;;;;;;;;;;;;5030858;28;1450;-65
2022/11/26 16:10:25;;;;;;;;;;;;;;;;;;5031489;28;919;-65
2022/11/26 16:13:09;;;;;;;;;;;;;;;;;;5031374;28;762;-65
2022/11/26 16:15:35;;;;;;;;;;;;;;;;;;5032605;28;790;-65
2022/11/26 16:18:02;;;;;;;;;;;;;;;;;;5030808;28;1213;-65
2022/11/26 16:20:28;;;;;;;;;;;;;;;;;;5031687;28;888;-65
2022/11/26 16:22:55;;;;;;;;;;;;;;;;;;5030474;28;1922;-65
2022/11/26 16:25:22;;;;;;;;;;;;;;;;;;5030075;28;866;-66
2022/11/26 16:28:01;;;;;;;;;;;;;;;;;;5032004;28;987;-65
2022/11/26 16:30:26;;;;;;;;;;;;;;;;;;5031347;28;924;-66
2022/11/26 16:32:52;;;;;;;;;;;;;;;;;;5032144;28;869;-66
2022/11/26 16:35:17;;;;;;;;;;;;;;;;;;5031113;28;833;-66
2022/11/26 16:37:43;;;;;;;;;;;;;;;;;;5031853;28;924;-66
2022/11/26 16:40:12;;;;;;;;;;;;;;;;;;5030418;28;838;-67
2022/11/26 16:42:37;;;;;;;;;;;;;;;;;;5047650;28;1902;-66
2022/11/26 16:45:03;;;;;;;;;;;;;;;;;;5031939;28;798;-66
2022/11/26 16:47:30;;;;;;;;;;;;;;;;;;5046887;28;1306;-66
2022/11/26 16:49:55;;;;;;;;;;;;;;;;;;5031992;28;908;-66
2022/11/26 16:52:21;;;;;;;;;;;;;;;;;;5031766;28;849;-66
2022/11/26 16:54:46;;;;;;;;;;;;;;;;;;5033475;28;857;-66
2022/11/26 16:57:17;;;;;;;;;;;;;;;;;;5032281;28;821;-66
2022/11/26 16:59:44;;;;;;;;;;;;;;;;;;5031311;28;1354;-66
2022/11/26 17:02:19;;;;;;;;;;;;;;;;;;5031836;28;1894;-66
2022/11/26 17:04:44;;;;;;;;;;;;;;;;;;5031480;28;1181;-66
2022/11/26 17:07:14;;;;;;;;;;;;;;;;;;5031770;28;1056;-66
2022/11/26 17:09:40;;;;;;;;;;;;;;;;;;5046840;28;1565;-67
2022/11/26 17:12:13;;;;;;;;;;;;;;;;;;5029727;28;852;-67
2022/11/26 17:14:38;;;;;;;;;;;;;;;;;;5031374;28;915;-67
2022/11/26 17:17:04;;;;;;;;;;;;;;;;;;5031291;28;833;-68
2022/11/26 17:19:29;;;;;;;;;;;;;;;;;;5030584;28;830;-68
2022/11/26 17:21:54;;;;;;;;;;;;;;;;;;5029950;28;1918;-68